Time;durP1;ratioP1;P1;durP2;ratioP2;P2;SDS_P1;SDS_P2;PMS_P1;PMS_P2;Temp;Humidity;BMP_temperature;BMP_pressure;BME280_temperature;BME280_humidity;BME280_pressure;Samples;Min_cycle;Max_cycle;Signal;HPM_P1;HPM_P2
2021/12/01 00:00:51;;;;;;;0.20;0.20;;;;;;;0.98;100.00;99491.13;5063421;28;20044;-88
2021/12/01 00:03:24;;;;;;;0.25;0.25;;;;;;;0.98;100.00;99483.09;5065967;28;20059;-86
2021/12/01 00:05:53;;;;;;;0.20;0.20;;;;;;;1.01;100.00;99479.91;5068204;28;20053;-87
2021/12/01 00:08:22;;;;;;;0.20;0.20;;;;;;;1.00;100.00;99477.47;5057597;28;20057;-87
2021/12/01 00:10:56;;;;;;;0.20;0.20;;;;;;;0.95;100.00;99472.03;5064440;28;20045;-86
2021/12/01 00:13:32;;;;;;;0.20;0.20;;;;;;;0.90;100.00;99463.94;5062060;28;20041;-86
2021/12/01 00:16:08;;;;;;;0.30;0.30;;;;;;;0.87;100.00;99464.41;5072997;28;20409;-87
2021/12/01 00:18:41;;;;;;;0.20;0.20;;;;;;;0.85;100.00;99464.66;5059383;28;20045;-87
2021/12/01 00:21:15;;;;;;;0.20;0.20;;;;;;;0.82;100.00;99446.41;5062817;28;20076;-86
2021/12/01 00:23:44;;;;;;;0.20;0.20;;;;;;;0.84;100.00;99446.97;5069042;28;20037;-87
2021/12/01 00:26:17;;;;;;;0.28;0.28;;;;;;;0.82;100.00;99443.75;5059982;28;20052;-87
2021/12/01 00:28:51;;;;;;;0.30;0.30;;;;;;;0.88;100.00;99434.72;5064876;28;20047;-86
2021/12/01 00:31:24;;;;;;;0.20;0.20;;;;;;;0.89;100.00;99435.53;5064299;28;20056;-87
2021/12/01 00:33:52;;;;;;;0.30;0.30;;;;;;;0.99;100.00;99435.66;5071565;28;20048;-86
2021/12/01 00:36:28;;;;;;;0.20;0.20;;;;;;;1.03;100.00;99431.44;5062336;28;20049;-84
2021/12/01 00:39:04;;;;;;;0.30;0.30;;;;;;;1.02;100.00;99416.41;5058095;28;20781;-87
2021/12/01 00:41:37;;;;;;;0.20;0.20;;;;;;;1.09;100.00;99414.38;5068044;28;20056;-87
2021/12/01 00:44:10;;;;;;;0.30;0.30;;;;;;;1.10;100.00;99399.91;5061000;28;20502;-87
2021/12/01 00:46:54;;;;;;;0.20;0.20;;;;;;;1.14;100.00;99398.34;5062940;28;20052;-87
2021/12/01 00:49:23;;;;;;;0.20;0.20;;;;;;;1.19;100.00;99405.66;5072424;28;20048;-85
2021/12/01 00:51:56;;;;;;;0.20;0.20;;;;;;;1.19;100.00;99385.03;5057880;28;20511;-87
2021/12/01 00:54:31;;;;;;;0.25;0.25;;;;;;;1.28;100.00;99376.53;5084465;28;20055;-87
2021/12/01 00:57:04;;;;;;;0.30;0.30;;;;;;;1.24;100.00;99360.13;5063237;28;20484;-87
2021/12/01 00:59:34;;;;;;;0.28;0.28;;;;;;;1.34;100.00;99357.59;5071987;28;20381;-86
2021/12/01 01:02:07;;;;;;;0.20;0.20;;;;;;;1.33;100.00;99339.88;5064005;28;20053;-87
2021/12/01 01:04:41;;;;;;;0.20;0.20;;;;;;;1.41;100.00;99352.03;5062302;28;20045;-86
2021/12/01 01:07:09;;;;;;;0.20;0.20;;;;;;;1.34;100.00;99343.38;5060693;28;20052;-86
2021/12/01 01:09:44;;;;;;;0.20;0.20;;;;;;;1.37;100.00;99337.53;5059042;28;20048;-87
2021/12/01 01:18:05;;;;;;;0.28;0.28;;;;;;;1.44;100.00;99314.00;5054430;28;20051;-88
2021/12/01 01:20:34;;;;;;;0.25;0.25;;;;;;;1.50;100.00;99306.81;5064337;28;20044;-86
2021/12/01 01:23:07;;;;;;;0.20;0.20;;;;;;;1.51;100.00;99306.56;5058088;28;20481;-87
2021/12/01 01:25:38;;;;;;;0.30;0.30;;;;;;;1.58;100.00;99308.22;5068605;28;20049;-87
2021/12/01 01:28:11;;;;;;;0.20;0.20;;;;;;;1.57;100.00;99298.56;5060518;28;20048;-86
2021/12/01 01:30:39;;;;;;;0.20;0.20;;;;;;;1.58;100.00;99282.22;5057461;28;20044;-87
2021/12/01 01:33:13;;;;;;;0.30;0.30;;;;;;;1.55;100.00;99289.94;5065361;28;20059;-86
2021/12/01 01:35:46;;;;;;;0.30;0.30;;;;;;;1.52;100.00;99291.28;5055159;28;20401;-86
2021/12/01 01:38:20;;;;;;;0.22;0.22;;;;;;;1.51;100.00;99285.09;5055044;28;20429;-87
2021/12/01 01:40:54;;;;;;;0.20;0.20;;;;;;;1.52;100.00;99272.53;5058990;28;20493;-87
2021/12/01 01:43:22;;;;;;;0.25;0.25;;;;;;;1.55;100.00;99271.19;5058472;28;20091;-87
2021/12/01 01:45:57;;;;;;;0.20;0.20;;;;;;;1.59;100.00;99261.56;5063206;28;20358;-87
2021/12/01 01:48:32;;;;;;;0.20;0.20;;;;;;;1.56;100.00;99249.50;5065154;28;20056;-87
2021/12/01 01:51:06;;;;;;;0.30;0.30;;;;;;;1.61;100.00;99256.78;5061977;28;20049;-86
2021/12/01 01:53:39;;;;;;;0.20;0.20;;;;;;;1.57;100.00;99237.69;5059493;28;20040;-86
2021/12/01 01:56:14;;;;;;;0.22;0.22;;;;;;;1.55;100.00;99223.75;5064877;28;20044;-86
2021/12/01 01:58:42;;;;;;;0.25;0.25;;;;;;;1.58;100.00;99219.75;5062758;28;20067;-87
2021/12/01 02:01:20;;;;;;;0.20;0.20;;;;;;;1.61;100.00;99200.47;5066084;28;20053;-87
2021/12/01 02:03:54;;;;;;;0.20;0.20;;;;;;;1.66;100.00;99206.66;5065646;28;20052;-86
2021/12/01 02:06:27;;;;;;;0.20;0.20;;;;;;;1.56;100.00;99179.78;5074119;28;20064;-87
2021/12/01 02:09:07;;;;;;;0.30;0.30;;;;;;;1.68;100.00;99187.63;5056781;28;20389;-87
2021/12/01 02:11:37;;;;;;;0.20;0.20;;;;;;;1.71;100.00;99176.38;5055073;28;20045;-86
2021/12/01 02:14:10;;;;;;;0.20;0.20;;;;;;;1.69;100.00;99173.16;5063979;28;20750;-85
2021/12/01 02:16:43;;;;;;;0.20;0.20;;;;;;;1.72;100.00;99171.84;5068468;28;20388;-86
2021/12/01 02:19:12;;;;;;;0.20;0.20;;;;;;;1.71;100.00;99162.97;5063880;28;20061;-86
2021/12/01 02:21:42;;;;;;;0.20;0.20;;;;;;;1.75;100.00;99158.72;5062901;28;20049;-87
2021/12/01 02:24:13;;;;;;;0.20;0.20;;;;;;;1.77;100.00;99150.41;5058959;28;20052;-86
2021/12/01 02:26:51;;;;;;;0.20;0.20;;;;;;;1.79;100.00;99149.06;5064723;28;20060;-85
2021/12/01 02:29:21;;;;;;;0.20;0.20;;;;;;;1.87;100.00;99151.28;5060894;28;20425;-85
2021/12/01 02:31:50;;;;;;;0.20;0.20;;;;;;;1.84;100.00;99133.03;5065605;28;20079;-85
2021/12/01 02:34:25;;;;;;;0.20;0.20;;;;;;;1.91;100.00;99140.84;5065735;28;20664;-85
2021/12/01 02:37:00;;;;;;;0.28;0.28;;;;;;;1.94;100.00;99147.56;5060838;28;20504;-86
2021/12/01 02:39:29;;;;;;;0.20;0.20;;;;;;;2.01;100.00;99134.72;5060380;28;20059;-86
2021/12/01 02:42:05;;;;;;;0.30;0.30;;;;;;;1.97;100.00;99133.63;5061347;28;20061;-86
2021/12/01 02:44:38;;;;;;;0.20;0.20;;;;;;;1.95;100.00;99109.75;5066833;28;20052;-83
2021/12/01 02:47:07;;;;;;;0.20;0.20;;;;;;;2.02;100.00;99107.63;5069633;28;20049;-86
2021/12/01 02:49:40;;;;;;;0.20;0.20;;;;;;;2.03;100.00;99092.31;5055620;28;20056;-85
2021/12/01 02:52:15;;;;;;;0.22;0.22;;;;;;;2.09;100.00;99096.66;5065400;28;20035;-86
2021/12/01 02:54:48;;;;;;;0.30;0.30;;;;;;;2.10;100.00;99090.22;5060579;28;20076;-86
2021/12/01 02:57:22;;;;;;;0.20;0.20;;;;;;;2.13;100.00;99087.00;5061033;28;20064;-86
2021/12/01 02:59:55;;;;;;;0.20;0.20;;;;;;;2.18;100.00;99075.47;5060275;28;20048;-86
2021/12/01 03:02:28;;;;;;;0.30;0.30;;;;;;;2.20;100.00;99066.09;5061828;28;20044;-86
2021/12/01 03:05:02;;;;;;;0.20;0.20;;;;;;;2.24;100.00;99050.25;5061711;28;20053;-86
2021/12/01 03:07:39;;;;;;;0.20;0.20;;;;;;;2.25;100.00;99032.28;5055936;28;20056;-86
2021/12/01 03:10:13;;;;;;;0.20;0.20;;;;;;;2.27;100.00;99011.34;5058078;28;20103;-86
2021/12/01 03:12:46;;;;;;;0.20;0.20;;;;;;;2.37;100.00;99025.56;5055780;28;20056;-85
2021/12/01 03:15:16;;;;;;;0.20;0.20;;;;;;;2.38;100.00;99016.47;5072489;28;20469;-86
2021/12/01 03:17:50;;;;;;;0.20;0.20;;;;;;;2.40;100.00;99012.72;5068698;28;20061;-86
2021/12/01 03:20:23;;;;;;;0.20;0.20;;;;;;;2.40;100.00;98997.41;5063557;28;20056;-85
2021/12/01 03:22:52;;;;;;;0.20;0.20;;;;;;;2.44;100.00;98993.09;5069635;28;20064;-85
2021/12/01 03:25:27;;;;;;;0.20;0.20;;;;;;;2.47;100.00;98983.72;5065988;28;20048;-85
2021/12/01 03:28:00;;;;;;;0.20;0.20;;;;;;;2.50;100.00;98980.47;5054956;28;20044;-86
2021/12/01 03:30:33;;;;;;;0.20;0.20;;;;;;;2.46;100.00;98971.34;5056898;28;20051;-86
2021/12/01 03:33:08;;;;;;;0.22;0.22;;;;;;;2.51;100.00;98958.75;5064929;28;20045;-86
2021/12/01 03:35:44;;;;;;;0.20;0.20;;;;;;;2.53;100.00;98961.97;5059639;28;20048;-85
2021/12/01 03:38:25;;;;;;;0.20;0.20;;;;;;;2.57;100.00;98956.03;5065133;28;20036;-85
2021/12/01 03:40:56;;;;;;;0.30;0.30;;;;;;;2.59;100.00;98952.03;5064352;28;20045;-86
2021/12/01 03:43:30;;;;;;;0.20;0.20;;;;;;;2.59;100.00;98937.81;5057788;28;20032;-86
2021/12/01 03:46:04;;;;;;;0.20;0.20;;;;;;;2.66;100.00;98943.69;5059098;28;20964;-84
2021/12/01 03:48:37;;;;;;;0.20;0.20;;;;;;;2.66;100.00;98919.53;5056788;28;20049;-85
2021/12/01 03:51:05;;;;;;;0.20;0.20;;;;;;;2.62;100.00;98895.06;5063225;28;20060;-85
2021/12/01 03:53:40;;;;;;;0.20;0.20;;;;;;;2.72;100.00;98902.31;5076710;28;20055;-86
2021/12/01 03:56:13;;;;;;;0.20;0.20;;;;;;;2.76;100.00;98873.03;5065275;28;20052;-86
2021/12/01 03:58:47;;;;;;;0.22;0.22;;;;;;;2.66;100.00;98825.53;5062913;28;20045;-86
2021/12/01 04:01:15;;;;;;;0.30;0.30;;;;;;;2.66;100.00;98812.88;5066400;28;20052;-85
2021/12/01 04:03:49;;;;;;;0.20;0.20;;;;;;;2.70;100.00;98831.97;5061713;28;20686;-85
2021/12/01 04:06:22;;;;;;;0.20;0.20;;;;;;;2.78;100.00;98828.72;5056719;28;20041;-84
2021/12/01 04:08:57;;;;;;;0.28;0.28;;;;;;;2.78;100.00;98823.34;5066072;28;20053;-86
2021/12/01 04:11:31;;;;;;;0.20;0.20;;;;;;;2.78;100.00;98812.59;5055835;28;20043;-86
2021/12/01 04:14:04;;;;;;;0.20;0.20;;;;;;;2.79;100.00;98797.28;5060310;28;20753;-85
2021/12/01 04:16:38;;;;;;;0.30;0.30;;;;;;;2.90;100.00;98790.78;5059818;28;20049;-85
2021/12/01 04:19:11;;;;;;;0.20;0.20;;;;;;;2.88;100.00;98796.41;5065699;28;20041;-86
2021/12/01 04:21:39;;;;;;;0.30;0.30;;;;;;;2.91;100.00;98786.22;5069885;28;20051;-87
2021/12/01 04:24:14;;;;;;;0.20;0.20;;;;;;;2.86;100.00;98784.38;5072155;28;20429;-86
2021/12/01 04:26:48;;;;;;;0.20;0.20;;;;;;;2.83;100.00;98768.78;5063892;28;20048;-84
2021/12/01 04:29:21;;;;;;;0.20;0.20;;;;;;;2.84;100.00;98763.13;5061897;28;20048;-86
2021/12/01 04:31:54;;;;;;;0.25;0.25;;;;;;;2.89;100.00;98765.00;5058554;28;20037;-86
2021/12/01 04:34:22;;;;;;;0.20;0.20;;;;;;;2.81;100.00;98738.72;5074344;28;20069;-85
2021/12/01 04:36:56;;;;;;;0.20;0.20;;;;;;;2.88;100.00;98758.81;5060363;28;20044;-85
2021/12/01 04:39:31;;;;;;;0.22;0.22;;;;;;;2.93;100.00;98728.44;5066975;28;20041;-87
2021/12/01 04:42:05;;;;;;;0.20;0.20;;;;;;;2.82;100.00;98716.94;5060248;28;20044;-86
2021/12/01 04:44:39;;;;;;;0.20;0.20;;;;;;;2.94;100.00;98719.31;5064038;28;20389;-86
2021/12/01 04:47:14;;;;;;;0.22;0.22;;;;;;;2.91;100.00;98701.03;5061654;28;20048;-86
2021/12/01 04:49:47;;;;;;;0.20;0.20;;;;;;;3.00;100.00;98695.91;5058538;28;20072;-86
2021/12/01 04:52:21;;;;;;;0.20;0.20;;;;;;;2.97;100.00;98677.63;5061036;28;20037;-85
2021/12/01 04:54:55;;;;;;;0.20;0.20;;;;;;;2.91;100.00;98671.47;5066274;28;20492;-86
2021/12/01 04:57:28;;;;;;;0.20;0.20;;;;;;;2.93;100.00;98660.44;5056135;28;20519;-87
2021/12/01 05:00:02;;;;;;;0.20;0.20;;;;;;;3.05;100.00;98655.53;5064035;28;20393;-86
2021/12/01 05:02:35;;;;;;;0.10;0.10;;;;;;;3.02;100.00;98656.09;5066559;28;20049;-86
2021/12/01 05:05:09;;;;;;;0.20;0.20;;;;;;;2.98;100.00;98634.34;5060855;28;20045;-82
2021/12/01 05:07:37;;;;;;;0.20;0.20;;;;;;;3.04;100.00;98632.44;5066247;28;20049;-85
2021/12/01 05:10:12;;;;;;;0.20;0.20;;;;;;;3.05;100.00;98629.47;5063469;28;20059;-85
2021/12/01 05:12:40;;;;;;;0.20;0.20;;;;;;;3.08;100.00;98627.28;5065636;28;20048;-85
2021/12/01 05:15:14;;;;;;;0.22;0.22;;;;;;;3.09;100.00;98615.47;5069380;28;20048;-86
2021/12/01 05:17:47;;;;;;;0.30;0.30;;;;;;;3.06;100.00;98604.19;5067418;28;20072;-86
2021/12/01 05:20:20;;;;;;;0.20;0.20;;;;;;;3.09;100.00;98594.75;5069194;28;20068;-85
2021/12/01 05:22:53;;;;;;;0.20;0.20;;;;;;;3.10;100.00;98582.94;5069693;28;20053;-86
2021/12/01 05:25:28;;;;;;;0.20;0.20;;;;;;;3.03;100.00;98572.50;5066012;28;20048;-86
2021/12/01 05:28:01;;;;;;;0.20;0.20;;;;;;;3.11;100.00;98568.41;5076025;28;20052;-84
2021/12/01 05:30:34;;;;;;;0.20;0.20;;;;;;;3.13;100.00;98563.56;5068696;28;20044;-86
2021/12/01 05:33:09;;;;;;;0.20;0.20;;;;;;;3.16;100.00;98546.06;5064454;28;20053;-86
2021/12/01 05:35:46;;;;;;;0.20;0.20;;;;;;;3.17;100.00;98548.47;5066981;28;20056;-85
2021/12/01 05:38:15;;;;;;;0.20;0.20;;;;;;;3.21;100.00;98524.50;5066892;28;20398;-85
2021/12/01 05:40:51;;;;;;;0.20;0.20;;;;;;;3.25;100.00;98530.94;5067762;28;20052;-86
2021/12/01 05:43:24;;;;;;;0.10;0.10;;;;;;;3.32;100.00;98517.16;5068014;28;20041;-85
2021/12/01 05:45:58;;;;;;;0.20;0.20;;;;;;;3.26;100.00;98500.28;5070168;28;20044;-87
2021/12/01 05:48:26;;;;;;;0.17;0.17;;;;;;;3.36;100.00;98513.59;5068302;28;20048;-86
2021/12/01 05:50:59;;;;;;;0.20;0.20;;;;;;;3.33;100.00;98494.53;5057360;28;20045;-86
2021/12/01 05:53:33;;;;;;;0.20;0.20;;;;;;;3.34;100.00;98483.53;5059367;28;20041;-86
2021/12/01 05:56:07;;;;;;;0.20;0.20;;;;;;;3.43;100.00;98481.00;5065364;28;20060;-85
2021/12/01 05:58:41;;;;;;;0.20;0.20;;;;;;;3.42;100.00;98465.16;5066519;28;20044;-86
2021/12/01 06:01:14;;;;;;;0.15;0.15;;;;;;;3.46;100.00;98469.66;5067725;28;20052;-86
2021/12/01 06:03:43;;;;;;;0.20;0.20;;;;;;;3.55;100.00;98464.47;5065285;28;20115;-85
2021/12/01 06:06:16;;;;;;;0.10;0.10;;;;;;;3.45;100.00;98438.47;5068961;28;20078;-86
2021/12/01 06:08:50;;;;;;;0.20;0.20;;;;;;;3.57;100.00;98455.00;5056018;28;20128;-86
2021/12/01 06:11:26;;;;;;;0.20;0.20;;;;;;;3.62;100.00;98435.31;5065888;28;20043;-85
2021/12/01 06:13:59;;;;;;;0.20;0.20;;;;;;;3.62;100.00;98427.25;5067056;28;20040;-85
2021/12/01 06:16:32;;;;;;;0.20;0.20;;;;;;;3.67;100.00;98412.94;5064120;28;20053;-85
2021/12/01 06:19:06;;;;;;;0.20;0.20;;;;;;;3.75;100.00;98407.69;5071802;28;20056;-86
2021/12/01 06:21:39;;;;;;;0.30;0.30;;;;;;;3.80;100.00;98404.16;5071767;28;20067;-85
2021/12/01 06:24:07;;;;;;;0.20;0.20;;;;;;;3.84;100.00;98389.00;5066306;28;20056;-85
2021/12/01 06:26:37;;;;;;;0.20;0.20;;;;;;;3.91;100.00;98383.28;5067834;28;20194;-85
2021/12/01 06:29:10;;;;;;;0.20;0.20;;;;;;;3.94;100.00;98368.44;5061495;28;20052;-85
2021/12/01 06:31:43;;;;;;;0.25;0.25;;;;;;;3.97;100.00;98375.91;5061715;28;20044;-85
2021/12/01 06:34:17;;;;;;;0.20;0.20;;;;;;;4.09;100.00;98363.59;5068240;28;20059;-85
2021/12/01 06:36:50;;;;;;;0.20;0.20;;;;;;;4.02;100.00;98351.59;5064690;28;20049;-85
2021/12/01 06:39:23;;;;;;;0.20;0.20;;;;;;;4.15;100.00;98344.69;5063006;28;20049;-86
2021/12/01 06:41:54;;;;;;;0.20;0.20;;;;;;;4.19;100.00;98337.63;5070071;28;20059;-84
2021/12/01 06:44:30;;;;;;;0.20;0.20;;;;;;;4.16;100.00;98338.22;5064940;28;20067;-86
2021/12/01 06:47:04;;;;;;;0.20;0.20;;;;;;;4.23;100.00;98328.63;5068095;28;20059;-86
2021/12/01 06:49:37;;;;;;;0.15;0.15;;;;;;;4.32;100.00;98326.06;5068915;28;20484;-87
2021/12/01 06:52:10;;;;;;;0.20;0.20;;;;;;;4.38;100.00;98316.81;5061795;28;20049;-84
2021/12/01 06:54:43;;;;;;;0.20;0.20;;;;;;;4.43;100.00;98307.81;5058980;28;20041;-85
2021/12/01 06:57:13;;;;;;;0.20;0.20;;;;;;;4.51;100.00;98309.03;5062845;28;20539;-86
2021/12/01 06:59:46;;;;;;;0.10;0.10;;;;;;;4.49;100.00;98297.75;5061404;28;20084;-85
2021/12/01 07:02:16;;;;;;;0.13;0.13;;;;;;;4.56;100.00;98295.50;5066831;28;20056;-85
2021/12/01 07:04:44;;;;;;;0.20;0.20;;;;;;;4.57;100.00;98281.72;5060746;28;20049;-86
2021/12/01 07:07:13;;;;;;;0.20;0.20;;;;;;;4.66;100.00;98286.41;5066642;28;20060;-86
2021/12/01 07:09:50;;;;;;;0.20;0.20;;;;;;;4.70;100.00;98282.81;5065873;28;20071;-86
2021/12/01 07:12:24;;;;;;;0.20;0.20;;;;;;;4.72;100.00;98275.25;5064907;28;20493;-86
2021/12/01 07:14:58;;;;;;;0.20;0.20;;;;;;;4.79;100.00;98263.25;5061876;28;20041;-87
2021/12/01 07:17:31;;;;;;;0.20;0.20;;;;;;;4.89;100.00;98253.06;5061310;28;20041;-86
2021/12/01 07:20:06;;;;;;;0.20;0.20;;;;;;;4.92;100.00;98248.97;5059029;28;20504;-86
2021/12/01 07:22:39;;;;;;;0.20;0.20;;;;;;;4.98;100.00;98245.03;5060597;28;20053;-86
2021/12/01 07:25:13;;;;;;;0.20;0.20;;;;;;;5.04;100.00;98227.69;5065123;28;20036;-85
2021/12/01 07:27:47;;;;;;;0.20;0.20;;;;;;;5.13;100.00;98235.84;5056929;28;20036;-85
2021/12/01 07:30:20;;;;;;;0.20;0.20;;;;;;;5.18;100.00;98224.94;5078391;28;20071;-84
2021/12/01 07:32:50;;;;;;;0.20;0.20;;;;;;;5.27;100.00;98209.63;5063778;28;20036;-86
2021/12/01 07:35:19;;;;;;;0.20;0.20;;;;;;;5.42;100.00;98204.97;5065933;28;20037;-86
2021/12/01 07:37:53;;;;;;;0.20;0.20;;;;;;;5.48;100.00;98208.34;5069974;28;20055;-85
2021/12/01 07:40:26;;;;;;;0.20;0.20;;;;;;;5.66;100.00;98206.56;5057285;28;20052;-86
2021/12/01 07:43:00;;;;;;;0.20;0.20;;;;;;;5.66;100.00;98185.75;5057625;28;20044;-86
2021/12/01 07:45:35;;;;;;;0.20;0.20;;;;;;;5.80;100.00;98185.69;5063495;28;20051;-84
2021/12/01 07:48:08;;;;;;;0.20;0.20;;;;;;;5.89;100.00;98191.13;5063573;28;20041;-85
2021/12/01 07:50:42;;;;;;;0.13;0.13;;;;;;;6.03;100.00;98172.97;5065346;28;20056;-85
2021/12/01 07:53:15;;;;;;;0.20;0.20;;;;;;;6.01;100.00;98177.06;5059234;28;20115;-84
2021/12/01 07:55:49;;;;;;;0.20;0.20;;;;;;;6.09;100.00;98171.72;5060603;28;20381;-85
2021/12/01 07:58:18;;;;;;;0.20;0.20;;;;;;;6.15;100.00;98177.78;5070714;28;20059;-86
2021/12/01 08:00:51;;;;;;;0.20;0.20;;;;;;;6.25;100.00;98185.59;5055893;28;20121;-84
2021/12/01 08:03:25;;;;;;;0.20;0.20;;;;;;;6.21;100.00;98171.13;5062282;28;20048;-83
2021/12/01 08:05:53;;;;;;;0.20;0.20;;;;;;;6.26;100.00;98157.47;5060549;28;20041;-83
2021/12/01 08:08:27;;;;;;;0.20;0.20;;;;;;;6.27;100.00;98150.97;5058231;28;20048;-83
2021/12/01 08:11:01;;;;;;;0.20;0.20;;;;;;;6.29;100.00;98142.56;5076710;28;20602;-82
2021/12/01 08:13:30;;;;;;;0.20;0.20;;;;;;;6.29;100.00;98137.94;5061053;28;20067;-81
2021/12/01 08:16:00;;;;;;;0.20;0.20;;;;;;;6.30;100.00;98127.94;5057719;28;20045;-81
2021/12/01 08:18:34;;;;;;;0.20;0.20;;;;;;;6.34;100.00;98128.09;5061151;28;20671;-83
2021/12/01 08:21:02;;;;;;;0.20;0.20;;;;;;;6.30;100.00;98125.25;5061041;28;20057;-84
2021/12/01 08:23:35;;;;;;;0.20;0.20;;;;;;;6.36;100.00;98120.50;5060892;28;20584;-82
2021/12/01 08:26:08;;;;;;;0.20;0.20;;;;;;;6.32;100.00;98108.72;5050537;28;20063;-82
2021/12/01 08:28:45;;;;;;;0.20;0.20;;;;;;;6.37;100.00;98111.28;5049953;28;20064;-81
2021/12/01 08:31:21;;;;;;;0.20;0.20;;;;;;;6.29;100.00;98113.63;5054547;28;20056;-83
2021/12/01 08:33:54;;;;;;;0.20;0.20;;;;;;;6.38;100.00;98104.75;5052816;28;20060;-81
2021/12/01 08:36:28;;;;;;;0.20;0.20;;;;;;;6.35;100.00;98098.06;5057735;28;20058;-81
2021/12/01 08:39:01;;;;;;;0.10;0.10;;;;;;;6.30;100.00;98092.84;5055115;28;20056;-81
2021/12/01 08:41:29;;;;;;;0.20;0.20;;;;;;;6.37;100.00;98101.25;5051421;28;20048;-81
2021/12/01 08:43:59;;;;;;;0.20;0.20;;;;;;;6.35;100.00;98087.25;5050119;28;20083;-82
2021/12/01 08:46:32;;;;;;;0.20;0.20;;;;;;;6.35;100.00;98087.25;5051377;28;20045;-83
2021/12/01 08:49:01;;;;;;;0.30;0.30;;;;;;;6.23;100.00;98076.31;5046602;28;20658;-80
2021/12/01 08:51:35;;;;;;;0.20;0.20;;;;;;;6.32;100.00;98085.19;5050032;28;20064;-81
2021/12/01 08:54:13;;;;;;;0.20;0.20;;;;;;;6.29;100.00;98066.94;5053760;28;20049;-82
2021/12/01 08:56:41;;;;;;;0.20;0.20;;;;;;;6.35;100.00;98067.56;5052400;28;21582;-82
2021/12/01 08:59:11;;;;;;;0.20;0.20;;;;;;;6.40;100.00;98073.63;5049657;28;20056;-80
2021/12/01 09:01:38;;;;;;;0.20;0.20;;;;;;;6.33;100.00;98062.50;5052375;28;20063;-81
2021/12/01 09:04:11;;;;;;;0.20;0.20;;;;;;;6.27;100.00;98051.03;5052069;28;20071;-83
2021/12/01 09:06:45;;;;;;;0.20;0.20;;;;;;;6.24;100.00;98038.19;5048861;28;20481;-83
2021/12/01 09:09:18;;;;;;;0.20;0.20;;;;;;;6.20;100.00;98039.09;5046236;28;20064;-82
2021/12/01 09:11:46;;;;;;;0.20;0.20;;;;;;;6.30;100.00;98038.81;5050862;28;20063;-82
2021/12/01 09:14:17;;;;;;;0.30;0.30;;;;;;;6.24;100.00;98040.06;5049226;28;20087;-83
2021/12/01 09:16:47;;;;;;;0.20;0.20;;;;;;;6.34;100.00;98038.97;5052320;28;20055;-81
2021/12/01 09:19:20;;;;;;;0.20;0.20;;;;;;;6.23;100.00;98025.00;5046472;28;20061;-81
2021/12/01 09:21:54;;;;;;;0.20;0.20;;;;;;;6.29;100.00;98024.50;5047130;28;20064;-81
2021/12/01 09:24:27;;;;;;;0.20;0.20;;;;;;;6.27;100.00;98017.81;5046964;28;20052;-81
2021/12/01 09:26:56;;;;;;;0.10;0.10;;;;;;;6.33;100.00;98013.09;5049180;28;20060;-81
2021/12/01 09:29:27;;;;;;;0.20;0.20;;;;;;;6.29;100.00;98010.22;5046289;28;20692;-80
2021/12/01 09:32:01;;;;;;;0.20;0.20;;;;;;;6.18;100.00;97990.03;5049079;28;20511;-81
2021/12/01 09:34:34;;;;;;;0.20;0.20;;;;;;;6.35;100.00;98000.81;5052806;28;20060;-82
2021/12/01 09:37:07;;;;;;;0.20;0.20;;;;;;;6.34;100.00;97993.03;5052261;28;20071;-81
2021/12/01 09:39:41;;;;;;;0.20;0.20;;;;;;;6.31;100.00;98002.56;5050371;28;20060;-83
2021/12/01 09:42:10;;;;;;;0.20;0.20;;;;;;;6.26;100.00;98002.75;5047315;28;20733;-81
2021/12/01 09:44:45;;;;;;;0.20;0.20;;;;;;;6.27;100.00;97997.03;5047472;28;20041;-81
2021/12/01 09:47:20;;;;;;;0.20;0.20;;;;;;;6.35;100.00;97986.53;5048928;28;20037;-85
2021/12/01 09:49:50;;;;;;;0.20;0.20;;;;;;;6.25;100.00;97988.44;5046529;28;20049;-82
2021/12/01 09:52:23;;;;;;;0.20;0.20;;;;;;;6.18;100.00;97973.81;5047099;28;20052;-83
2021/12/01 09:54:52;;;;;;;0.20;0.20;;;;;;;6.23;100.00;97969.06;5046495;28;20051;-82
2021/12/01 09:57:25;;;;;;;0.20;0.20;;;;;;;6.19;100.00;97973.50;5050548;28;20036;-83
2021/12/01 10:00:00;;;;;;;0.20;0.20;;;;;;;6.19;100.00;97959.22;5051080;28;20049;-82
2021/12/01 10:02:28;;;;;;;0.20;0.20;;;;;;;6.20;100.00;97953.50;5050230;28;20049;-82
2021/12/01 10:04:56;;;;;;;0.20;0.20;;;;;;;6.08;100.00;97942.53;5052140;28;20073;-82
2021/12/01 10:07:34;;;;;;;0.20;0.20;;;;;;;6.17;100.00;97961.44;5055306;28;20512;-82
2021/12/01 10:10:09;;;;;;;0.20;0.20;;;;;;;6.23;100.00;97942.06;5053066;28;20070;-83
2021/12/01 10:12:45;;;;;;;0.20;0.20;;;;;;;6.23;100.00;97933.16;5053891;28;20059;-83
2021/12/01 10:15:30;;;;;;;0.20;0.20;;;;;;;6.28;100.00;97939.22;5053912;28;20071;-80
2021/12/01 10:18:15;;;;;;;0.20;0.20;;;;;;;6.32;100.00;97930.47;5052593;28;20055;-82
2021/12/01 10:20:56;;;;;;;0.20;0.20;;;;;;;6.29;100.00;97918.38;5049614;28;20067;-82
2021/12/01 10:23:29;;;;;;;0.20;0.20;;;;;;;6.28;100.00;97920.28;5054326;28;20059;-81
2021/12/01 10:26:07;;;;;;;0.20;0.20;;;;;;;6.23;100.00;97906.94;5053145;28;20044;-83
2021/12/01 10:28:43;;;;;;;0.20;0.20;;;;;;;6.20;100.00;97883.28;5052190;28;20064;-80
2021/12/01 10:31:15;;;;;;;0.20;0.20;;;;;;;6.28;100.00;97895.19;5050677;28;20404;-82
2021/12/01 10:33:48;;;;;;;0.20;0.20;;;;;;;6.23;100.00;97898.84;5055926;28;20059;-82
2021/12/01 10:36:26;;;;;;;0.20;0.20;;;;;;;6.24;100.00;97891.53;5052333;28;20049;-82
2021/12/01 10:39:06;;;;;;;0.20;0.20;;;;;;;6.25;100.00;97876.91;5051972;28;20048;-82
2021/12/01 10:41:43;;;;;;;0.20;0.20;;;;;;;6.21;100.00;97857.06;5050933;28;20062;-81
2021/12/01 10:44:15;;;;;;;0.20;0.20;;;;;;;6.27;100.00;97863.88;5051729;28;20053;-82
2021/12/01 10:46:53;;;;;;;0.20;0.20;;;;;;;6.30;100.00;97849.75;5049286;28;20067;-81
2021/12/01 10:49:33;;;;;;;0.20;0.20;;;;;;;6.23;100.00;97834.03;5054596;28;20055;-82
2021/12/01 10:52:02;;;;;;;0.20;0.20;;;;;;;6.22;100.00;97826.25;5056101;28;20056;-82
2021/12/01 10:54:35;;;;;;;0.20;0.20;;;;;;;6.21;100.00;97822.75;5052688;28;20060;-81
2021/12/01 10:57:21;;;;;;;0.20;0.20;;;;;;;6.24;100.00;97813.22;5048334;28;20056;-82
2021/12/01 10:59:54;;;;;;;0.28;0.28;;;;;;;6.30;100.00;97807.31;5050023;28;20055;-82
2021/12/01 11:02:35;;;;;;;0.20;0.20;;;;;;;6.26;100.00;97806.38;5049279;28;20048;-81
2021/12/01 11:05:08;;;;;;;0.20;0.20;;;;;;;6.25;100.00;97793.97;5052307;28;20067;-81
2021/12/01 11:07:37;;;;;;;0.20;0.20;;;;;;;6.27;100.00;97791.75;5049439;28;20056;-82
2021/12/01 11:10:13;;;;;;;0.20;0.20;;;;;;;6.24;100.00;97781.63;5046276;28;20041;-80
2021/12/01 11:12:53;;;;;;;0.20;0.20;;;;;;;6.27;100.00;97775.56;5051036;28;20067;-83
2021/12/01 11:15:24;;;;;;;0.20;0.20;;;;;;;6.23;100.00;97763.03;5051593;28;20670;-83
2021/12/01 11:18:01;;;;;;;0.20;0.20;;;;;;;6.30;100.00;97758.72;5053980;28;20090;-82
2021/12/01 11:20:42;;;;;;;0.20;0.20;;;;;;;6.33;100.00;97751.09;5056237;28;20045;-82
2021/12/01 11:23:16;;;;;;;0.20;0.20;;;;;;;6.31;100.00;97754.09;5056538;28;20060;-82
2021/12/01 11:25:53;;;;;;;0.20;0.20;;;;;;;6.29;100.00;97735.50;5054266;28;20416;-82
2021/12/01 11:28:30;;;;;;;0.20;0.20;;;;;;;6.42;100.00;97733.72;5050541;28;20059;-82
2021/12/01 11:31:06;;;;;;;0.20;0.20;;;;;;;6.33;100.00;97719.47;5052460;28;20052;-82
2021/12/01 11:33:37;;;;;;;0.20;0.20;;;;;;;6.41;100.00;97707.03;5054531;28;20052;-82
2021/12/01 11:36:12;;;;;;;0.20;0.20;;;;;;;6.40;100.00;97702.75;5053141;28;20060;-81
2021/12/01 11:38:42;;;;;;;0.20;0.20;;;;;;;6.35;100.00;97692.91;5051530;28;20047;-82
2021/12/01 11:41:15;;;;;;;0.20;0.20;;;;;;;6.42;100.00;97682.41;5051965;28;20059;-81
2021/12/01 11:43:44;;;;;;;0.20;0.20;;;;;;;6.39;100.00;97666.81;5054976;28;20048;-82
2021/12/01 11:46:19;;;;;;;0.10;0.10;;;;;;;6.38;100.00;97675.25;5052223;28;20067;-82
2021/12/01 11:48:55;;;;;;;0.20;0.20;;;;;;;6.39;100.00;97677.63;5054099;28;20702;-81
2021/12/01 11:51:38;;;;;;;0.20;0.20;;;;;;;6.39;100.00;97671.44;5055396;28;20788;-82
2021/12/01 11:54:12;;;;;;;0.15;0.15;;;;;;;6.41;100.00;97669.22;5055460;28;20743;-81
2021/12/01 11:56:53;;;;;;;0.20;0.20;;;;;;;6.39;100.00;97655.25;5053158;28;20053;-82
2021/12/01 11:59:28;;;;;;;0.30;0.30;;;;;;;6.46;100.00;97639.31;5056864;28;20063;-82
2021/12/01 12:02:03;;;;;;;0.20;0.20;;;;;;;6.47;100.00;97627.38;5052532;28;20060;-82
2021/12/01 12:04:45;;;;;;;0.20;0.20;;;;;;;6.54;100.00;97618.75;5053240;28;20781;-82
2021/12/01 12:07:20;;;;;;;0.20;0.20;;;;;;;6.51;100.00;97614.03;5051522;28;20434;-81